createdAt,value
2018-09-23T00:02:13.786Z,100733
2018-09-23T00:04:42.622Z,100732
2018-09-23T00:07:11.448Z,100725
2018-09-23T00:09:41.024Z,100724
2018-09-23T00:12:09.855Z,100731
2018-09-23T00:14:38.695Z,100731
2018-09-23T00:17:07.519Z,100726
2018-09-23T00:19:37.092Z,100720
2018-09-23T00:22:05.922Z,100726
2018-09-23T00:24:34.759Z,100722
2018-09-23T00:27:03.595Z,100719
2018-09-23T00:29:33.162Z,100712
2018-09-23T00:32:01.991Z,100716
2018-09-23T00:34:31.562Z,100698
2018-09-23T00:37:00.397Z,100696
2018-09-23T00:39:29.227Z,100694
2018-09-23T00:41:58.049Z,100687
2018-09-23T00:44:27.630Z,100679
2018-09-23T00:46:56.470Z,100685
2018-09-23T00:49:25.300Z,100671
2018-09-23T00:51:54.141Z,100674
2018-09-23T00:54:22.972Z,100662
2018-09-23T00:56:51.810Z,100652
2018-09-23T00:59:20.659Z,100652
2018-09-23T01:01:49.500Z,100652
2018-09-23T01:04:18.325Z,100640
2018-09-23T01:06:47.153Z,100648
2018-09-23T01:09:15.990Z,100643
2018-09-23T01:11:44.828Z,100634
2018-09-23T01:14:14.413Z,100647
2018-09-23T01:16:43.244Z,100630
2018-09-23T01:19:12.080Z,100628
2018-09-23T01:21:40.923Z,100619
2018-09-23T01:24:09.767Z,100613
2018-09-23T01:26:38.602Z,100604
2018-09-23T01:29:07.439Z,100604
2018-09-23T01:31:36.275Z,100601
2018-09-23T01:34:05.842Z,100607
2018-09-23T01:36:34.667Z,100609
2018-09-23T01:39:03.491Z,100602
2018-09-23T01:41:32.326Z,100601
2018-09-23T01:44:01.184Z,100589
2018-09-23T01:46:30.006Z,100574
2018-09-23T01:48:59.795Z,100559
2018-09-23T01:51:28.627Z,100568
2018-09-23T01:53:57.466Z,100562
2018-09-23T01:56:26.314Z,100543
2018-09-23T01:58:55.139Z,100544
2018-09-23T02:01:23.972Z,100543
2018-09-23T02:03:52.813Z,100542
2018-09-23T02:06:22.395Z,100539
2018-09-23T02:08:51.226Z,100548
2018-09-23T02:11:20.058Z,100546
2018-09-23T02:13:48.887Z,100532
2018-09-23T02:16:17.713Z,100529
2018-09-23T02:18:47.320Z,100530
2018-09-23T02:21:16.171Z,100523
2018-09-23T02:23:44.995Z,100513
2018-09-23T02:26:14.571Z,100509
2018-09-23T02:28:43.701Z,100505
2018-09-23T02:31:13.277Z,100495
2018-09-23T02:33:42.111Z,100492
2018-09-23T02:36:11.686Z,100495
2018-09-23T02:38:40.521Z,100487
2018-09-23T02:41:09.350Z,100481
2018-09-23T02:46:07.027Z,100463
2018-09-23T02:48:35.853Z,100455
2018-09-23T02:51:04.692Z,100451
2018-09-23T02:53:33.520Z,100446
2018-09-23T02:56:02.366Z,100445
2018-09-23T02:58:31.199Z,100434
2018-09-23T03:01:00.021Z,100424
2018-09-23T03:03:28.868Z,100422
2018-09-23T03:05:57.698Z,100423
2018-09-23T03:08:26.520Z,100425
2018-09-23T03:10:55.348Z,100408
2018-09-23T03:13:24.199Z,100410
2018-09-23T03:15:53.026Z,100401
2018-09-23T03:18:21.876Z,100396
2018-09-23T03:20:50.706Z,100385
2018-09-23T03:23:20.285Z,100384
2018-09-23T03:25:49.128Z,100396
2018-09-23T03:28:17.953Z,100373
2018-09-23T03:30:46.783Z,100373
2018-09-23T03:33:16.363Z,100368
2018-09-23T03:35:45.199Z,100357
2018-09-23T03:38:14.027Z,100350
2018-09-23T03:40:42.873Z,100338
2018-09-23T03:43:11.690Z,100333
2018-09-23T03:45:40.524Z,100324
2018-09-23T03:48:09.353Z,100324
2018-09-23T03:50:38.187Z,100315
2018-09-23T03:53:07.018Z,100306
2018-09-23T03:55:35.847Z,100308
2018-09-23T03:58:04.744Z,100297
2018-09-23T04:00:33.520Z,100289
2018-09-23T04:03:02.347Z,100291
2018-09-23T04:05:31.927Z,100288
2018-09-23T04:08:00.752Z,100284
2018-09-23T04:10:29.584Z,100269
2018-09-23T04:12:58.409Z,100266
2018-09-23T04:15:27.240Z,100269
2018-09-23T04:17:56.079Z,100263
2018-09-23T04:20:24.917Z,100265
2018-09-23T04:22:53.751Z,100261
2018-09-23T04:25:22.580Z,100266
2018-09-23T04:27:51.404Z,100255
2018-09-23T04:30:20.242Z,100265
2018-09-23T04:32:49.813Z,100267
2018-09-23T04:35:18.648Z,100260
2018-09-23T04:37:48.230Z,100252
2018-09-23T04:40:17.060Z,100251
2018-09-23T04:42:45.888Z,100245
2018-09-23T04:45:14.722Z,100252
2018-09-23T04:47:44.300Z,100230
2018-09-23T04:50:13.713Z,100227
2018-09-23T04:52:44.221Z,100228
2018-09-23T04:55:12.610Z,100227
2018-09-23T04:57:41.388Z,100224
2018-09-23T05:00:10.227Z,100223
2018-09-23T05:02:39.066Z,100213
2018-09-23T05:05:07.894Z,100208
2018-09-23T05:07:36.737Z,100210
2018-09-23T05:10:05.574Z,100213
2018-09-23T05:12:35.168Z,100219
2018-09-23T05:15:04.010Z,100203
2018-09-23T05:17:32.849Z,100203
2018-09-23T05:20:02.432Z,100207
2018-09-23T05:22:31.274Z,100218
2018-09-23T05:25:00.119Z,100198
2018-09-23T05:27:28.948Z,100191
2018-09-23T05:29:57.786Z,100192
2018-09-23T05:32:26.620Z,100182
2018-09-23T05:34:55.463Z,100180
2018-09-23T05:37:24.298Z,100173
2018-09-23T05:39:53.123Z,100174
2018-09-23T05:42:21.965Z,100175
2018-09-23T05:44:50.802Z,100169
2018-09-23T05:47:19.646Z,100171
2018-09-23T05:49:49.246Z,100183
2018-09-23T05:52:18.101Z,100176
2018-09-23T05:54:46.929Z,100170
2018-09-23T05:57:15.778Z,100175
2018-09-23T05:59:44.608Z,100178
2018-09-23T06:02:13.442Z,100169
2018-09-23T06:04:42.283Z,100167
2018-09-23T06:07:11.116Z,100170
2018-09-23T06:09:39.950Z,100162
2018-09-23T06:12:09.549Z,100151
2018-09-23T06:14:39.122Z,100152
2018-09-23T06:17:07.957Z,100160
2018-09-23T06:19:36.783Z,100160
2018-09-23T06:22:05.797Z,100148
2018-09-23T06:24:34.603Z,100157
2018-09-23T06:27:03.440Z,100152
2018-09-23T06:29:32.280Z,100145
2018-09-23T06:32:01.117Z,100142
2018-09-23T06:34:29.955Z,100138
2018-09-23T06:36:59.432Z,100138
2018-09-23T06:39:28.212Z,100141
2018-09-23T06:41:57.063Z,100140
2018-09-23T06:44:25.894Z,100132
2018-09-23T06:46:54.736Z,100129
2018-09-23T06:49:23.576Z,100124
2018-09-23T06:51:52.552Z,100114
2018-09-23T06:54:22.015Z,100118
2018-09-23T06:56:50.853Z,100103
2018-09-23T06:59:19.660Z,100112
2018-09-23T07:01:48.492Z,100103
2018-09-23T07:04:18.072Z,100114
2018-09-23T07:06:46.909Z,100112
2018-09-23T07:09:15.751Z,100114
2018-09-23T07:11:44.594Z,100120
2018-09-23T07:14:13.439Z,100119
2018-09-23T07:16:42.293Z,100110
2018-09-23T07:19:11.135Z,100112
2018-09-23T07:21:40.715Z,100100
2018-09-23T07:24:09.596Z,100116
2018-09-23T07:26:38.384Z,100113
2018-09-23T07:29:07.214Z,100111
2018-09-23T07:31:36.052Z,100116
2018-09-23T07:34:04.915Z,100119
2018-09-23T07:36:33.746Z,100114
2018-09-23T07:39:02.603Z,100106
2018-09-23T07:41:31.436Z,100110
2018-09-23T07:44:01.040Z,100106
2018-09-23T07:46:29.842Z,100109
2018-09-23T07:48:59.421Z,100108
2018-09-23T07:51:28.251Z,100097
2018-09-23T07:53:57.107Z,100106
2018-09-23T07:56:25.948Z,100105
2018-09-23T07:58:54.767Z,100104
2018-09-23T08:01:23.600Z,100096
2018-09-23T08:03:53.180Z,100094
2018-09-23T08:06:22.008Z,100109
2018-09-23T08:08:50.845Z,100093
2018-09-23T08:11:19.667Z,100096
2018-09-23T08:13:48.666Z,100101
2018-09-23T08:16:17.333Z,100106
2018-09-23T08:18:46.945Z,100103
2018-09-23T08:21:16.610Z,100089
2018-09-23T08:23:45.363Z,100086
2018-09-23T08:26:14.198Z,100091
2018-09-23T08:28:43.046Z,100089
2018-09-23T08:31:11.874Z,100084
2018-09-23T08:33:40.710Z,100082
2018-09-23T08:36:10.285Z,100078
2018-09-23T08:38:39.120Z,100075
2018-09-23T08:41:07.959Z,100075
2018-09-23T08:43:36.791Z,100078
2018-09-23T08:46:05.628Z,100083
2018-09-23T08:48:34.463Z,100080
2018-09-23T08:51:03.309Z,100085
2018-09-23T08:53:32.143Z,100090
2018-09-23T08:56:00.990Z,100063
2018-09-23T08:58:29.825Z,100077
2018-09-23T09:00:58.669Z,100079
2018-09-23T09:03:27.525Z,100084
2018-09-23T09:05:56.362Z,100078
2018-09-23T09:08:25.188Z,100068
2018-09-23T09:10:54.027Z,100069
2018-09-23T09:13:22.851Z,100090
2018-09-23T09:15:51.770Z,100078
2018-09-23T09:18:20.543Z,100092
2018-09-23T09:20:50.108Z,100076
2018-09-23T09:23:19.010Z,100064
2018-09-23T09:25:47.807Z,100074
2018-09-23T09:28:17.476Z,100078
2018-09-23T09:30:46.268Z,100067
2018-09-23T09:33:15.127Z,100064
2018-09-23T09:35:44.733Z,100055
2018-09-23T09:38:13.542Z,100052
2018-09-23T09:40:42.407Z,100046
2018-09-23T09:43:11.250Z,100049
2018-09-23T09:45:40.085Z,100031
2018-09-23T09:48:08.924Z,100035
2018-09-23T09:50:37.750Z,100027
2018-09-23T09:53:06.599Z,100022
2018-09-23T09:55:35.427Z,100016
2018-09-23T09:58:04.280Z,100015
2018-09-23T10:00:33.846Z,100017
2018-09-23T10:03:02.677Z,100013
2018-09-23T10:05:31.524Z,100007
2018-09-23T10:08:00.363Z,100001
2018-09-23T10:10:29.189Z,99992
2018-09-23T10:12:58.018Z,99985
2018-09-23T10:15:26.855Z,99980
2018-09-23T10:17:55.706Z,99986
2018-09-23T10:20:24.537Z,99990
2018-09-23T10:22:53.444Z,99983
2018-09-23T10:25:22.202Z,99980
2018-09-23T10:27:51.774Z,99973
2018-09-23T10:30:20.600Z,99961
2018-09-23T10:32:49.433Z,99968
2018-09-23T10:35:18.259Z,99954
2018-09-23T10:37:47.127Z,99960
2018-09-23T10:40:15.978Z,99955
2018-09-23T10:42:44.805Z,99959
2018-09-23T10:45:13.633Z,99948
2018-09-23T10:47:42.464Z,99933
2018-09-23T10:50:12.330Z,99936
2018-09-23T10:52:41.154Z,99946
2018-09-23T10:55:09.977Z,99924
2018-09-23T10:57:38.797Z,99923
2018-09-23T11:00:07.633Z,99922
2018-09-23T11:02:36.458Z,99917
2018-09-23T11:05:06.046Z,99914
2018-09-23T11:07:34.878Z,99930
2018-09-23T11:10:03.733Z,99923
2018-09-23T11:12:33.160Z,99930
2018-09-23T11:15:01.986Z,99920
2018-09-23T11:17:30.826Z,99911
2018-09-23T11:19:59.674Z,99889
2018-09-23T11:22:28.518Z,99888
2018-09-23T11:24:57.522Z,99873
2018-09-23T11:27:26.289Z,99878
2018-09-23T11:29:55.858Z,99876
2018-09-23T11:32:24.696Z,99850
2018-09-23T11:34:53.541Z,99862
2018-09-23T11:37:22.367Z,99845
2018-09-23T11:39:51.972Z,99845
2018-09-23T11:42:20.757Z,99834
2018-09-23T11:44:50.340Z,99828
2018-09-23T11:47:19.929Z,99842
2018-09-23T11:49:48.760Z,99819
2018-09-23T11:52:18.356Z,99803
2018-09-23T11:54:47.927Z,99809
2018-09-23T11:57:16.761Z,99804
2018-09-23T11:59:45.607Z,99786
2018-09-23T12:02:14.530Z,99781
2018-09-23T12:04:43.275Z,99761
2018-09-23T12:07:12.113Z,99754
2018-09-23T12:09:41.699Z,99750
2018-09-23T12:12:10.555Z,99770
2018-09-23T12:14:39.398Z,99754
2018-09-23T12:17:08.963Z,99724
2018-09-23T12:19:37.809Z,99720
2018-09-23T12:22:06.636Z,99707
2018-09-23T12:24:35.465Z,99712
2018-09-23T12:27:05.063Z,99707
2018-09-23T12:29:34.691Z,99699
2018-09-23T12:32:03.486Z,99672
2018-09-23T12:34:32.320Z,99671
2018-09-23T12:37:01.151Z,99662
2018-09-23T12:39:30.759Z,99677
2018-09-23T12:41:59.577Z,99663
2018-09-23T12:44:28.406Z,99668
2018-09-23T12:46:57.253Z,99670
2018-09-23T12:49:26.111Z,99641
2018-09-23T12:51:55.698Z,99646
2018-09-23T12:54:24.531Z,99624
2018-09-23T12:56:53.368Z,99640
2018-09-23T12:59:22.205Z,99621
2018-09-23T13:01:51.071Z,99614
2018-09-23T13:04:19.865Z,99617
2018-09-23T13:06:48.704Z,99602
2018-09-23T13:09:17.540Z,99605
2018-09-23T13:11:47.123Z,99581
2018-09-23T13:14:15.973Z,99577
2018-09-23T13:16:44.850Z,99572
2018-09-23T13:19:14.434Z,99545
2018-09-23T13:21:43.230Z,99540
2018-09-23T13:24:12.820Z,99535
2018-09-23T13:26:42.386Z,99523
2018-09-23T13:29:11.240Z,99504
2018-09-23T13:31:40.078Z,99486
2018-09-23T13:34:08.925Z,99481
2018-09-23T13:36:37.833Z,99478
2018-09-23T13:39:07.206Z,99462
2018-09-23T13:41:36.780Z,99462
2018-09-23T13:44:05.616Z,99447
2018-09-23T13:46:34.466Z,99459
2018-09-23T13:49:03.305Z,99468
2018-09-23T13:51:32.131Z,99477
2018-09-23T13:54:00.962Z,99467
2018-09-23T13:56:29.822Z,99464
2018-09-23T13:58:58.647Z,99462
2018-09-23T14:01:27.517Z,99448
2018-09-23T14:03:56.322Z,99441
2018-09-23T14:06:25.149Z,99426
2018-09-23T14:08:53.983Z,99406
2018-09-23T14:11:23.579Z,99417
2018-09-23T14:13:52.423Z,99422
2018-09-23T14:16:21.306Z,99405
2018-09-23T14:18:50.838Z,99410
2018-09-23T14:21:19.663Z,99404
2018-09-23T14:23:48.510Z,99399
2018-09-23T14:26:17.346Z,99397
2018-09-23T14:28:46.164Z,99388
2018-09-23T14:31:14.994Z,99402
2018-09-23T14:33:43.841Z,99386
2018-09-23T14:36:12.684Z,99368
2018-09-23T14:38:41.517Z,99380
2018-09-23T14:41:10.356Z,99383
2018-09-23T14:43:39.934Z,99381
2018-09-23T14:46:08.794Z,99382
2018-09-23T14:48:37.621Z,99380
2018-09-23T14:51:06.481Z,99381
2018-09-23T14:53:35.335Z,99359
2018-09-23T14:56:04.931Z,99359
2018-09-23T14:58:33.786Z,99355
2018-09-23T15:01:02.608Z,99327
2018-09-23T15:03:31.458Z,99312
2018-09-23T15:06:00.354Z,99316
2018-09-23T15:08:29.194Z,99332
2018-09-23T15:10:58.844Z,99373
2018-09-23T15:13:27.639Z,99385
2018-09-23T15:15:56.482Z,99418
2018-09-23T15:18:26.443Z,99383
2018-09-23T15:20:55.301Z,99333
2018-09-23T15:23:24.168Z,99609
2018-09-23T15:25:53.022Z,99592
2018-09-23T15:28:21.939Z,99549
2018-09-23T15:30:50.775Z,99533
2018-09-23T15:33:19.611Z,99527
2018-09-23T15:35:49.205Z,99529
2018-09-23T15:38:18.016Z,99516
2018-09-23T15:40:47.583Z,99537
2018-09-23T15:43:16.406Z,99551
2018-09-23T15:45:45.286Z,99538
2018-09-23T15:48:14.089Z,99523
2018-09-23T15:50:43.658Z,99532
2018-09-23T15:53:12.491Z,99566
2018-09-23T15:55:42.081Z,99567
2018-09-23T15:58:10.924Z,99566
2018-09-23T16:00:39.756Z,99590
2018-09-23T16:03:08.596Z,99557
2018-09-23T16:05:37.426Z,99560
2018-09-23T16:08:06.274Z,99585
2018-09-23T16:10:35.328Z,99572
2018-09-23T16:13:04.904Z,99590
2018-09-23T16:15:33.734Z,99613
2018-09-23T16:18:03.311Z,99627
2018-09-23T16:20:32.144Z,99612
2018-09-23T16:23:01.010Z,99623
2018-09-23T16:25:30.579Z,99633
2018-09-23T16:27:59.424Z,99647
2018-09-23T16:30:28.259Z,99663
2018-09-23T16:32:57.103Z,99665
2018-09-23T16:35:25.952Z,99689
2018-09-23T16:37:55.038Z,99694
2018-09-23T16:40:23.882Z,99710
2018-09-23T16:42:52.710Z,99688
2018-09-23T16:45:21.549Z,99672
2018-09-23T16:47:50.438Z,99675
2018-09-23T16:50:19.223Z,99677
2018-09-23T16:52:48.791Z,99728
2018-09-23T16:55:17.617Z,99757
2018-09-23T16:57:46.447Z,99770
2018-09-23T17:00:15.282Z,99765
2018-09-23T17:02:44.857Z,99753
2018-09-23T17:05:13.705Z,99749
2018-09-23T17:07:42.566Z,99762
2018-09-23T17:10:11.435Z,99780
2018-09-23T17:12:40.297Z,99808
2018-09-23T17:15:09.142Z,99845
2018-09-23T17:17:37.982Z,99911
2018-09-23T17:20:06.817Z,99893
2018-09-23T17:22:36.406Z,99960
2018-09-23T17:25:10.966Z,99973
2018-09-23T17:27:39.806Z,99985
2018-09-23T17:30:08.698Z,99958
2018-09-23T17:32:38.206Z,99951
2018-09-23T17:35:07.704Z,99928
2018-09-23T17:37:37.267Z,99886
2018-09-23T17:40:06.067Z,99869
2018-09-23T17:42:34.912Z,99892
2018-09-23T17:45:03.765Z,99916
2018-09-23T17:47:32.618Z,99947
2018-09-23T17:50:01.435Z,99968
2018-09-23T17:52:30.276Z,100011
2018-09-23T17:54:59.873Z,100047
2018-09-23T17:57:28.710Z,100041
2018-09-23T17:59:57.547Z,100045
2018-09-23T18:02:26.389Z,100052
2018-09-23T18:04:55.264Z,100082
2018-09-23T18:07:24.847Z,100105
2018-09-23T18:09:54.438Z,100108
2018-09-23T18:12:23.874Z,100142
2018-09-23T18:14:52.703Z,100164
2018-09-23T18:17:21.539Z,100179
2018-09-23T18:19:51.143Z,100167
2018-09-23T18:22:20.732Z,100197
2018-09-23T18:24:49.570Z,100191
2018-09-23T18:27:18.402Z,100217
2018-09-23T18:29:47.256Z,100222
2018-09-23T18:32:16.083Z,100242
2018-09-23T18:34:45.527Z,100269
2018-09-23T18:37:14.400Z,100281
2018-09-23T18:39:43.204Z,100325
2018-09-23T18:42:12.077Z,100343
2018-09-23T18:44:40.884Z,100399
2018-09-23T18:47:09.721Z,100403
2018-09-23T18:49:38.547Z,100411
2018-09-23T18:52:08.127Z,100417
2018-09-23T18:54:36.976Z,100411
2018-09-23T18:57:05.860Z,100409
2018-09-23T18:59:34.687Z,100421
2018-09-23T19:02:03.570Z,100420
2018-09-23T19:04:32.375Z,100421
2018-09-23T19:07:01.809Z,100407
2018-09-23T19:09:30.661Z,100418
2018-09-23T19:11:59.491Z,100446
2018-09-23T19:14:28.332Z,100450
2018-09-23T19:16:57.188Z,100450
2018-09-23T19:19:26.050Z,100441
2018-09-23T19:21:55.637Z,100449
2018-09-23T19:24:24.500Z,100456
2018-09-23T19:26:53.361Z,100479
2018-09-23T19:29:22.222Z,100495
2018-09-23T19:31:51.037Z,100498
2018-09-23T19:34:19.864Z,100496
2018-09-23T19:36:48.711Z,100539
2018-09-23T19:39:17.543Z,100560
2018-09-23T19:41:46.971Z,100570
2018-09-23T19:44:15.821Z,100580
2018-09-23T19:46:44.654Z,100600
2018-09-23T19:49:14.251Z,100608
2018-09-23T19:51:43.069Z,100607
2018-09-23T19:54:11.941Z,100618
2018-09-23T19:56:41.529Z,100632
2018-09-23T19:59:10.377Z,100649
2018-09-23T20:01:39.220Z,100659
2018-09-23T20:04:08.070Z,100672
2018-09-23T20:06:36.929Z,100692
2018-09-23T20:09:06.496Z,100695
2018-09-23T20:11:35.340Z,100699
2018-09-23T20:14:04.180Z,100711
2018-09-23T20:16:33.028Z,100706
2018-09-23T20:19:01.909Z,100715
2018-09-23T20:21:30.755Z,100728
2018-09-23T20:24:00.389Z,100719
2018-09-23T20:26:29.218Z,100729
2018-09-23T20:28:58.071Z,100729
2018-09-23T20:31:26.941Z,100734
2018-09-23T20:33:55.769Z,100741
2018-09-23T20:36:24.610Z,100758
2018-09-23T20:38:54.267Z,100765
2018-09-23T20:41:23.078Z,100772
2018-09-23T20:43:51.962Z,100778
2018-09-23T20:46:20.766Z,100788
2018-09-23T20:48:49.598Z,100811
2018-09-23T20:51:18.437Z,100826
2018-09-23T20:53:47.334Z,100845
2018-09-23T20:56:16.103Z,100852
2018-09-23T20:58:44.939Z,100860
2018-09-23T21:01:13.776Z,100850
2018-09-23T21:03:42.612Z,100879
2018-09-23T21:06:11.449Z,100880
2018-09-23T21:08:40.294Z,100884
2018-09-23T21:11:09.875Z,100900
2018-09-23T21:13:38.729Z,100901
2018-09-23T21:16:07.573Z,100911
2018-09-23T21:18:36.399Z,100913
2018-09-23T21:21:05.227Z,100905
2018-09-23T21:23:34.066Z,100924
2018-09-23T21:26:02.905Z,100921
2018-09-23T21:28:31.766Z,100923
2018-09-23T21:31:00.611Z,100922
2018-09-23T21:33:29.460Z,100941
2018-09-23T21:35:58.277Z,100955
2018-09-23T21:38:27.109Z,100967
2018-09-23T21:40:55.953Z,100980
2018-09-23T21:43:25.536Z,100983
2018-09-23T21:45:54.356Z,100985
2018-09-23T21:48:23.435Z,101000
2018-09-23T21:50:52.024Z,101013
2018-09-23T21:53:20.873Z,101021
2018-09-23T21:55:49.719Z,101031
2018-09-23T21:58:18.548Z,101046
2018-09-23T22:00:47.382Z,101060
2018-09-23T22:03:16.243Z,101083
2018-09-23T22:05:45.040Z,101094
2018-09-23T22:08:13.875Z,101094
2018-09-23T22:10:42.716Z,101102
2018-09-23T22:13:11.560Z,101117
2018-09-23T22:15:40.391Z,101127
2018-09-23T22:18:09.244Z,101163
2018-09-23T22:20:38.070Z,101136
2018-09-23T22:23:06.895Z,101139
2018-09-23T22:25:35.718Z,101146
2018-09-23T22:28:04.549Z,101149
2018-09-23T22:30:34.135Z,101151
2018-09-23T22:33:02.965Z,101158
2018-09-23T22:35:31.792Z,101168
2018-09-23T22:38:00.618Z,101171
2018-09-23T22:40:29.442Z,101165
2018-09-23T22:42:58.295Z,101166
2018-09-23T22:45:27.140Z,101175
2018-09-23T22:47:55.987Z,101182
2018-09-23T22:50:24.817Z,101194
2018-09-23T22:52:53.655Z,101209
2018-09-23T22:55:22.484Z,101224
2018-09-23T22:57:51.348Z,101239
2018-09-23T23:00:20.139Z,101241
2018-09-23T23:02:48.993Z,101244
2018-09-23T23:05:17.822Z,101261
2018-09-23T23:07:46.652Z,101263
2018-09-23T23:10:15.480Z,101268
2018-09-23T23:12:45.058Z,101273
2018-09-23T23:15:13.886Z,101285
2018-09-23T23:17:43.459Z,101282
2018-09-23T23:20:12.303Z,101291
2018-09-23T23:22:41.135Z,101292
2018-09-23T23:25:09.976Z,101299
2018-09-23T23:27:38.812Z,101312
2018-09-23T23:30:07.645Z,101319
2018-09-23T23:32:36.477Z,101317
2018-09-23T23:35:05.301Z,101324
2018-09-23T23:37:34.874Z,101325
2018-09-23T23:40:03.778Z,101333
2018-09-23T23:42:32.617Z,101348
2018-09-23T23:45:01.456Z,101344
2018-09-23T23:47:30.296Z,101351
2018-09-23T23:49:59.131Z,101352
2018-09-23T23:52:27.969Z,101369
2018-09-23T23:54:56.794Z,101367
2018-09-23T23:57:25.625Z,101370
2018-09-23T23:59:54.563Z,101374
